sensor_id;sensor_type;location;lat;lon;timestamp;P1;durP1;ratioP1;P2;durP2;ratioP2
17949;SDS011;9100;48.700;9.316;2023-05-20T00:00:55;5.9;;;4.7;;
17949;SDS011;9100;48.700;9.316;2023-05-20T00:01:55;5.9;;;4.7;;
17949;SDS011;9100;48.700;9.316;2023-05-20T00:02:55;5.9;;;4.7;;
17949;SDS011;9100;48.700;9.316;2023-05-20T00:03:55;5.9;;;4.7;;
17949;SDS011;9100;48.700;9.316;2023-05-20T00:04:53;5.6;;;4.5;;
17949;SDS011;9100;48.700;9.316;2023-05-20T00:04:55;5.6;;;4.5;;
17949;SDS011;9100;48.700;9.316;2023-05-20T00:05:55;5.6;;;4.5;;
17949;SDS011;9100;48.700;9.316;2023-05-20T00:06:55;5.6;;;4.5;;
17949;SDS011;9100;48.700;9.316;2023-05-20T00:07:55;5.6;;;4.5;;
17949;SDS011;9100;48.700;9.316;2023-05-20T00:08:55;5.6;;;4.5;;
17949;SDS011;9100;48.700;9.316;2023-05-20T00:09:53;8.8;;;4.8;;
17949;SDS011;9100;48.700;9.316;2023-05-20T00:09:55;8.8;;;4.8;;
17949;SDS011;9100;48.700;9.316;2023-05-20T00:10:55;8.8;;;4.8;;
17949;SDS011;9100;48.700;9.316;2023-05-20T00:11:55;8.8;;;4.8;;
17949;SDS011;9100;48.700;9.316;2023-05-20T00:12:55;8.8;;;4.8;;
17949;SDS011;9100;48.700;9.316;2023-05-20T00:13:55;8.8;;;4.8;;
17949;SDS011;9100;48.700;9.316;2023-05-20T00:14:54;4.8;;;4.4;;
17949;SDS011;9100;48.700;9.316;2023-05-20T00:14:55;4.8;;;4.4;;
17949;SDS011;9100;48.700;9.316;2023-05-20T00:15:55;4.8;;;4.4;;
17949;SDS011;9100;48.700;9.316;2023-05-20T00:16:55;4.8;;;4.4;;
17949;SDS011;9100;48.700;9.316;2023-05-20T00:17:56;4.8;;;4.4;;
17949;SDS011;9100;48.700;9.316;2023-05-20T00:18:55;4.8;;;4.4;;
17949;SDS011;9100;48.700;9.316;2023-05-20T00:19:53;6.6;;;4.5;;
17949;SDS011;9100;48.700;9.316;2023-05-20T00:19:55;6.6;;;4.5;;
17949;SDS011;9100;48.700;9.316;2023-05-20T00:20:55;6.6;;;4.5;;
17949;SDS011;9100;48.700;9.316;2023-05-20T00:21:55;6.6;;;4.5;;
17949;SDS011;9100;48.700;9.316;2023-05-20T00:22:55;6.6;;;4.5;;
17949;SDS011;9100;48.700;9.316;2023-05-20T00:23:55;6.6;;;4.5;;
17949;SDS011;9100;48.700;9.316;2023-05-20T00:24:53;5.4;;;4.4;;
17949;SDS011;9100;48.700;9.316;2023-05-20T00:24:55;5.4;;;4.4;;
17949;SDS011;9100;48.700;9.316;2023-05-20T00:25:55;5.4;;;4.4;;
17949;SDS011;9100;48.700;9.316;2023-05-20T00:26:55;5.4;;;4.4;;
17949;SDS011;9100;48.700;9.316;2023-05-20T00:27:55;5.4;;;4.4;;
17949;SDS011;9100;48.700;9.316;2023-05-20T00:28:55;5.4;;;4.4;;
17949;SDS011;9100;48.700;9.316;2023-05-20T00:29:53;4.8;;;4.3;;
17949;SDS011;9100;48.700;9.316;2023-05-20T00:29:55;4.8;;;4.3;;
17949;SDS011;9100;48.700;9.316;2023-05-20T00:30:55;4.8;;;4.3;;
17949;SDS011;9100;48.700;9.316;2023-05-20T00:31:55;4.8;;;4.3;;
17949;SDS011;9100;48.700;9.316;2023-05-20T00:32:55;4.8;;;4.3;;
17949;SDS011;9100;48.700;9.316;2023-05-20T00:33:55;4.8;;;4.3;;
17949;SDS011;9100;48.700;9.316;2023-05-20T00:34:55;4.9;;;4.1;;
17949;SDS011;9100;48.700;9.316;2023-05-20T00:34:55;4.9;;;4.1;;
17949;SDS011;9100;48.700;9.316;2023-05-20T00:35:55;4.9;;;4.1;;
17949;SDS011;9100;48.700;9.316;2023-05-20T00:36:55;4.9;;;4.1;;
17949;SDS011;9100;48.700;9.316;2023-05-20T00:37:55;4.9;;;4.1;;
17949;SDS011;9100;48.700;9.316;2023-05-20T00:38:55;4.9;;;4.1;;
17949;SDS011;9100;48.700;9.316;2023-05-20T00:39:53;9;;;4.3;;
17949;SDS011;9100;48.700;9.316;2023-05-20T00:39:55;9;;;4.3;;
17949;SDS011;9100;48.700;9.316;2023-05-20T00:40:55;9;;;4.3;;
17949;SDS011;9100;48.700;9.316;2023-05-20T00:41:55;9;;;4.3;;
17949;SDS011;9100;48.700;9.316;2023-05-20T00:42:55;9;;;4.3;;
17949;SDS011;9100;48.700;9.316;2023-05-20T00:43:55;9;;;4.3;;
17949;SDS011;9100;48.700;9.316;2023-05-20T00:44:53;3.9;;;3.6;;
17949;SDS011;9100;48.700;9.316;2023-05-20T00:44:55;3.9;;;3.6;;
17949;SDS011;9100;48.700;9.316;2023-05-20T00:45:55;3.9;;;3.6;;
17949;SDS011;9100;48.700;9.316;2023-05-20T00:46:55;3.9;;;3.6;;
17949;SDS011;9100;48.700;9.316;2023-05-20T00:47:55;3.9;;;3.6;;
17949;SDS011;9100;48.700;9.316;2023-05-20T00:48:55;3.9;;;3.6;;
17949;SDS011;9100;48.700;9.316;2023-05-20T00:49:53;4.4;;;4;;
17949;SDS011;9100;48.700;9.316;2023-05-20T00:49:55;4.4;;;4;;
17949;SDS011;9100;48.700;9.316;2023-05-20T00:50:55;4.4;;;4;;
17949;SDS011;9100;48.700;9.316;2023-05-20T00:51:55;4.4;;;4;;
17949;SDS011;9100;48.700;9.316;2023-05-20T00:52:55;4.4;;;4;;
17949;SDS011;9100;48.700;9.316;2023-05-20T00:53:55;4.4;;;4;;
17949;SDS011;9100;48.700;9.316;2023-05-20T00:54:53;5.1;;;4.7;;
17949;SDS011;9100;48.700;9.316;2023-05-20T00:54:55;5.1;;;4.7;;
17949;SDS011;9100;48.700;9.316;2023-05-20T00:55:55;5.1;;;4.7;;
17949;SDS011;9100;48.700;9.316;2023-05-20T00:56:55;5.1;;;4.7;;
17949;SDS011;9100;48.700;9.316;2023-05-20T00:57:55;5.1;;;4.7;;
17949;SDS011;9100;48.700;9.316;2023-05-20T00:58:55;5.1;;;4.7;;
17949;SDS011;9100;48.700;9.316;2023-05-20T00:59:53;6.6;;;4.9;;
17949;SDS011;9100;48.700;9.316;2023-05-20T00:59:55;6.6;;;4.9;;
17949;SDS011;9100;48.700;9.316;2023-05-20T01:00:55;6.6;;;4.9;;
17949;SDS011;9100;48.700;9.316;2023-05-20T01:01:55;6.6;;;4.9;;
17949;SDS011;9100;48.700;9.316;2023-05-20T01:02:55;6.6;;;4.9;;
17949;SDS011;9100;48.700;9.316;2023-05-20T01:03:55;6.6;;;4.9;;
17949;SDS011;9100;48.700;9.316;2023-05-20T01:04:53;4.7;;;4.3;;
17949;SDS011;9100;48.700;9.316;2023-05-20T01:04:55;4.7;;;4.3;;
17949;SDS011;9100;48.700;9.316;2023-05-20T01:05:55;4.7;;;4.3;;
17949;SDS011;9100;48.700;9.316;2023-05-20T01:06:55;4.7;;;4.3;;
17949;SDS011;9100;48.700;9.316;2023-05-20T01:07:55;4.7;;;4.3;;
17949;SDS011;9100;48.700;9.316;2023-05-20T01:08:55;4.7;;;4.3;;
17949;SDS011;9100;48.700;9.316;2023-05-20T01:09:53;5.4;;;4.9;;
17949;SDS011;9100;48.700;9.316;2023-05-20T01:09:55;5.4;;;4.9;;
17949;SDS011;9100;48.700;9.316;2023-05-20T01:10:57;5.4;;;4.9;;
17949;SDS011;9100;48.700;9.316;2023-05-20T01:11:55;5.4;;;4.9;;
17949;SDS011;9100;48.700;9.316;2023-05-20T01:12:56;5.4;;;4.9;;
17949;SDS011;9100;48.700;9.316;2023-05-20T01:13:56;5.4;;;4.9;;
17949;SDS011;9100;48.700;9.316;2023-05-20T01:14:55;6.3;;;5;;
17949;SDS011;9100;48.700;9.316;2023-05-20T01:14:57;6.3;;;5;;
17949;SDS011;9100;48.700;9.316;2023-05-20T01:15:55;6.3;;;5;;
17949;SDS011;9100;48.700;9.316;2023-05-20T01:16:55;6.3;;;5;;
17949;SDS011;9100;48.700;9.316;2023-05-20T01:17:56;6.3;;;5;;
17949;SDS011;9100;48.700;9.316;2023-05-20T01:18:55;6.3;;;5;;
17949;SDS011;9100;48.700;9.316;2023-05-20T01:19:54;6.1;;;5.5;;
17949;SDS011;9100;48.700;9.316;2023-05-20T01:19:55;6.1;;;5.5;;
17949;SDS011;9100;48.700;9.316;2023-05-20T01:20:55;6.1;;;5.5;;
17949;SDS011;9100;48.700;9.316;2023-05-20T01:21:55;6.1;;;5.5;;
17949;SDS011;9100;48.700;9.316;2023-05-20T01:22:55;6.1;;;5.5;;
17949;SDS011;9100;48.700;9.316;2023-05-20T01:23:55;6.1;;;5.5;;
17949;SDS011;9100;48.700;9.316;2023-05-20T01:24:54;5.9;;;5.3;;
17949;SDS011;9100;48.700;9.316;2023-05-20T01:24:55;5.9;;;5.3;;
17949;SDS011;9100;48.700;9.316;2023-05-20T01:25:55;5.9;;;5.3;;
17949;SDS011;9100;48.700;9.316;2023-05-20T01:26:55;5.9;;;5.3;;
17949;SDS011;9100;48.700;9.316;2023-05-20T01:27:55;5.9;;;5.3;;
17949;SDS011;9100;48.700;9.316;2023-05-20T01:28:55;5.9;;;5.3;;
17949;SDS011;9100;48.700;9.316;2023-05-20T01:29:53;6.4;;;4.7;;
17949;SDS011;9100;48.700;9.316;2023-05-20T01:29:55;6.4;;;4.7;;
17949;SDS011;9100;48.700;9.316;2023-05-20T01:30:55;6.4;;;4.7;;
17949;SDS011;9100;48.700;9.316;2023-05-20T01:31:55;6.4;;;4.7;;
17949;SDS011;9100;48.700;9.316;2023-05-20T01:32:57;6.4;;;4.7;;
17949;SDS011;9100;48.700;9.316;2023-05-20T01:33:55;6.4;;;4.7;;
17949;SDS011;9100;48.700;9.316;2023-05-20T01:34:53;4.8;;;4.3;;
17949;SDS011;9100;48.700;9.316;2023-05-20T01:34:55;4.8;;;4.3;;
17949;SDS011;9100;48.700;9.316;2023-05-20T01:35:55;4.8;;;4.3;;
17949;SDS011;9100;48.700;9.316;2023-05-20T01:36:55;4.8;;;4.3;;
17949;SDS011;9100;48.700;9.316;2023-05-20T01:37:55;4.8;;;4.3;;
17949;SDS011;9100;48.700;9.316;2023-05-20T01:38:55;4.8;;;4.3;;
17949;SDS011;9100;48.700;9.316;2023-05-20T01:39:53;4.8;;;4.4;;
17949;SDS011;9100;48.700;9.316;2023-05-20T01:39:55;4.8;;;4.4;;
17949;SDS011;9100;48.700;9.316;2023-05-20T01:40:55;4.8;;;4.4;;
17949;SDS011;9100;48.700;9.316;2023-05-20T01:41:55;4.8;;;4.4;;
17949;SDS011;9100;48.700;9.316;2023-05-20T01:42:55;4.8;;;4.4;;
17949;SDS011;9100;48.700;9.316;2023-05-20T01:43:55;4.8;;;4.4;;
17949;SDS011;9100;48.700;9.316;2023-05-20T01:44:53;6.5;;;4.2;;
17949;SDS011;9100;48.700;9.316;2023-05-20T01:44:55;6.5;;;4.2;;
17949;SDS011;9100;48.700;9.316;2023-05-20T01:45:55;6.5;;;4.2;;
17949;SDS011;9100;48.700;9.316;2023-05-20T01:46:55;6.5;;;4.2;;
17949;SDS011;9100;48.700;9.316;2023-05-20T01:47:55;6.5;;;4.2;;
17949;SDS011;9100;48.700;9.316;2023-05-20T01:48:55;6.5;;;4.2;;
17949;SDS011;9100;48.700;9.316;2023-05-20T01:49:53;5.2;;;4.4;;
17949;SDS011;9100;48.700;9.316;2023-05-20T01:49:55;5.2;;;4.4;;
17949;SDS011;9100;48.700;9.316;2023-05-20T01:50:55;5.2;;;4.4;;
17949;SDS011;9100;48.700;9.316;2023-05-20T01:51:55;5.2;;;4.4;;
17949;SDS011;9100;48.700;9.316;2023-05-20T01:52:55;5.2;;;4.4;;
17949;SDS011;9100;48.700;9.316;2023-05-20T01:53:55;5.2;;;4.4;;
17949;SDS011;9100;48.700;9.316;2023-05-20T01:54:53;4.9;;;4.5;;
17949;SDS011;9100;48.700;9.316;2023-05-20T01:54:55;4.9;;;4.5;;
17949;SDS011;9100;48.700;9.316;2023-05-20T01:55:55;4.9;;;4.5;;
17949;SDS011;9100;48.700;9.316;2023-05-20T01:56:55;4.9;;;4.5;;
17949;SDS011;9100;48.700;9.316;2023-05-20T01:57:55;4.9;;;4.5;;
17949;SDS011;9100;48.700;9.316;2023-05-20T01:58:55;4.9;;;4.5;;
17949;SDS011;9100;48.700;9.316;2023-05-20T01:59:53;5.4;;;4.9;;
17949;SDS011;9100;48.700;9.316;2023-05-20T01:59:55;5.4;;;4.9;;
17949;SDS011;9100;48.700;9.316;2023-05-20T02:00:55;5.4;;;4.9;;
17949;SDS011;9100;48.700;9.316;2023-05-20T02:01:55;5.4;;;4.9;;
17949;SDS011;9100;48.700;9.316;2023-05-20T02:02:55;5.4;;;4.9;;
17949;SDS011;9100;48.700;9.316;2023-05-20T02:03:55;5.4;;;4.9;;
17949;SDS011;9100;48.700;9.316;2023-05-20T02:04:53;5.4;;;4.9;;
17949;SDS011;9100;48.700;9.316;2023-05-20T02:04:55;5.4;;;4.9;;
17949;SDS011;9100;48.700;9.316;2023-05-20T02:05:55;5.4;;;4.9;;
17949;SDS011;9100;48.700;9.316;2023-05-20T02:06:55;5.4;;;4.9;;
17949;SDS011;9100;48.700;9.316;2023-05-20T02:07:55;5.4;;;4.9;;
17949;SDS011;9100;48.700;9.316;2023-05-20T02:08:55;5.4;;;4.9;;
17949;SDS011;9100;48.700;9.316;2023-05-20T02:09:54;4.9;;;4.5;;
17949;SDS011;9100;48.700;9.316;2023-05-20T02:09:55;4.9;;;4.5;;
17949;SDS011;9100;48.700;9.316;2023-05-20T02:10:55;4.9;;;4.5;;
17949;SDS011;9100;48.700;9.316;2023-05-20T02:11:55;4.9;;;4.5;;
17949;SDS011;9100;48.700;9.316;2023-05-20T02:12:55;4.9;;;4.5;;
17949;SDS011;9100;48.700;9.316;2023-05-20T02:13:55;4.9;;;4.5;;
17949;SDS011;9100;48.700;9.316;2023-05-20T02:14:53;4.9;;;4.6;;
17949;SDS011;9100;48.700;9.316;2023-05-20T02:14:55;4.9;;;4.6;;
17949;SDS011;9100;48.700;9.316;2023-05-20T02:15:55;4.9;;;4.6;;
17949;SDS011;9100;48.700;9.316;2023-05-20T02:16:55;4.9;;;4.6;;
17949;SDS011;9100;48.700;9.316;2023-05-20T02:17:55;4.9;;;4.6;;
17949;SDS011;9100;48.700;9.316;2023-05-20T02:18:55;4.9;;;4.6;;
17949;SDS011;9100;48.700;9.316;2023-05-20T02:19:53;4;;;3.7;;
17949;SDS011;9100;48.700;9.316;2023-05-20T02:19:55;4;;;3.7;;
17949;SDS011;9100;48.700;9.316;2023-05-20T02:20:55;4;;;3.7;;
17949;SDS011;9100;48.700;9.316;2023-05-20T02:21:55;4;;;3.7;;
17949;SDS011;9100;48.700;9.316;2023-05-20T02:22:55;4;;;3.7;;
17949;SDS011;9100;48.700;9.316;2023-05-20T02:23:55;4;;;3.7;;
17949;SDS011;9100;48.700;9.316;2023-05-20T02:24:54;10.1;;;4;;
17949;SDS011;9100;48.700;9.316;2023-05-20T02:24:55;10.1;;;4;;
17949;SDS011;9100;48.700;9.316;2023-05-20T02:25:55;10.1;;;4;;
17949;SDS011;9100;48.700;9.316;2023-05-20T02:26:55;10.1;;;4;;
17949;SDS011;9100;48.700;9.316;2023-05-20T02:27:55;10.1;;;4;;
17949;SDS011;9100;48.700;9.316;2023-05-20T02:28:55;10.1;;;4;;
17949;SDS011;9100;48.700;9.316;2023-05-20T02:29:53;8.5;;;4.3;;
17949;SDS011;9100;48.700;9.316;2023-05-20T02:29:55;8.5;;;4.3;;
17949;SDS011;9100;48.700;9.316;2023-05-20T02:30:55;8.5;;;4.3;;
17949;SDS011;9100;48.700;9.316;2023-05-20T02:31:55;8.5;;;4.3;;
17949;SDS011;9100;48.700;9.316;2023-05-20T02:32:55;8.5;;;4.3;;
17949;SDS011;9100;48.700;9.316;2023-05-20T02:33:55;8.5;;;4.3;;
17949;SDS011;9100;48.700;9.316;2023-05-20T02:34:53;4.4;;;4.1;;
17949;SDS011;9100;48.700;9.316;2023-05-20T02:34:55;4.4;;;4.1;;
17949;SDS011;9100;48.700;9.316;2023-05-20T02:35:55;4.4;;;4.1;;
17949;SDS011;9100;48.700;9.316;2023-05-20T02:36:55;4.4;;;4.1;;
17949;SDS011;9100;48.700;9.316;2023-05-20T02:37:55;4.4;;;4.1;;
17949;SDS011;9100;48.700;9.316;2023-05-20T02:38:55;4.4;;;4.1;;
17949;SDS011;9100;48.700;9.316;2023-05-20T02:39:54;4.3;;;4;;
17949;SDS011;9100;48.700;9.316;2023-05-20T02:39:55;4.3;;;4;;
17949;SDS011;9100;48.700;9.316;2023-05-20T02:40:55;4.3;;;4;;
17949;SDS011;9100;48.700;9.316;2023-05-20T02:41:55;4.3;;;4;;
17949;SDS011;9100;48.700;9.316;2023-05-20T02:42:55;4.3;;;4;;
17949;SDS011;9100;48.700;9.316;2023-05-20T02:43:55;4.3;;;4;;
17949;SDS011;9100;48.700;9.316;2023-05-20T02:44:54;6.8;;;4.6;;
17949;SDS011;9100;48.700;9.316;2023-05-20T02:44:55;6.8;;;4.6;;
17949;SDS011;9100;48.700;9.316;2023-05-20T02:45:55;6.8;;;4.6;;
17949;SDS011;9100;48.700;9.316;2023-05-20T02:46:55;6.8;;;4.6;;
17949;SDS011;9100;48.700;9.316;2023-05-20T02:47:55;6.8;;;4.6;;
17949;SDS011;9100;48.700;9.316;2023-05-20T02:48:55;6.8;;;4.6;;
17949;SDS011;9100;48.700;9.316;2023-05-20T02:49:54;9.5;;;5.1;;
17949;SDS011;9100;48.700;9.316;2023-05-20T02:49:55;9.5;;;5.1;;
17949;SDS011;9100;48.700;9.316;2023-05-20T02:50:55;9.5;;;5.1;;
17949;SDS011;9100;48.700;9.316;2023-05-20T02:51:55;9.5;;;5.1;;
17949;SDS011;9100;48.700;9.316;2023-05-20T02:52:55;9.5;;;5.1;;
17949;SDS011;9100;48.700;9.316;2023-05-20T02:53:55;9.5;;;5.1;;
17949;SDS011;9100;48.700;9.316;2023-05-20T02:54:54;5.5;;;5;;
17949;SDS011;9100;48.700;9.316;2023-05-20T02:54:55;5.5;;;5;;
17949;SDS011;9100;48.700;9.316;2023-05-20T02:55:56;5.5;;;5;;
17949;SDS011;9100;48.700;9.316;2023-05-20T02:56:55;5.5;;;5;;
17949;SDS011;9100;48.700;9.316;2023-05-20T02:57:55;5.5;;;5;;
17949;SDS011;9100;48.700;9.316;2023-05-20T02:58:55;5.5;;;5;;
17949;SDS011;9100;48.700;9.316;2023-05-20T02:59:54;4.7;;;4.4;;
17949;SDS011;9100;48.700;9.316;2023-05-20T02:59:55;4.7;;;4.4;;
17949;SDS011;9100;48.700;9.316;2023-05-20T03:00:55;4.7;;;4.4;;
17949;SDS011;9100;48.700;9.316;2023-05-20T03:01:55;4.7;;;4.4;;
17949;SDS011;9100;48.700;9.316;2023-05-20T03:02:55;4.7;;;4.4;;
17949;SDS011;9100;48.700;9.316;2023-05-20T03:03:55;4.7;;;4.4;;
17949;SDS011;9100;48.700;9.316;2023-05-20T03:04:54;4.5;;;4.1;;
17949;SDS011;9100;48.700;9.316;2023-05-20T03:04:55;4.5;;;4.1;;
17949;SDS011;9100;48.700;9.316;2023-05-20T03:05:55;4.5;;;4.1;;
17949;SDS011;9100;48.700;9.316;2023-05-20T03:06:55;4.5;;;4.1;;
17949;SDS011;9100;48.700;9.316;2023-05-20T03:07:55;4.5;;;4.1;;
17949;SDS011;9100;48.700;9.316;2023-05-20T03:08:55;4.5;;;4.1;;
17949;SDS011;9100;48.700;9.316;2023-05-20T03:09:53;5;;;4.4;;
17949;SDS011;9100;48.700;9.316;2023-05-20T03:09:55;5;;;4.4;;
17949;SDS011;9100;48.700;9.316;2023-05-20T03:10:55;5;;;4.4;;
17949;SDS011;9100;48.700;9.316;2023-05-20T03:11:55;5;;;4.4;;
17949;SDS011;9100;48.700;9.316;2023-05-20T03:12:55;5;;;4.4;;
17949;SDS011;9100;48.700;9.316;2023-05-20T03:13:55;5;;;4.4;;
17949;SDS011;9100;48.700;9.316;2023-05-20T03:14:53;5.1;;;4.6;;
17949;SDS011;9100;48.700;9.316;2023-05-20T03:14:55;5.1;;;4.6;;
17949;SDS011;9100;48.700;9.316;2023-05-20T03:15:55;5.1;;;4.6;;
17949;SDS011;9100;48.700;9.316;2023-05-20T03:16:55;5.1;;;4.6;;
17949;SDS011;9100;48.700;9.316;2023-05-20T03:17:55;5.1;;;4.6;;
17949;SDS011;9100;48.700;9.316;2023-05-20T03:18:55;5.1;;;4.6;;
17949;SDS011;9100;48.700;9.316;2023-05-20T03:19:54;5.6;;;4.8;;
17949;SDS011;9100;48.700;9.316;2023-05-20T03:19:55;5.6;;;4.8;;
17949;SDS011;9100;48.700;9.316;2023-05-20T03:20:55;5.6;;;4.8;;
17949;SDS011;9100;48.700;9.316;2023-05-20T03:21:55;5.6;;;4.8;;
17949;SDS011;9100;48.700;9.316;2023-05-20T03:22:55;5.6;;;4.8;;
17949;SDS011;9100;48.700;9.316;2023-05-20T03:23:55;5.6;;;4.8;;
17949;SDS011;9100;48.700;9.316;2023-05-20T03:24:53;6.5;;;5.3;;
17949;SDS011;9100;48.700;9.316;2023-05-20T03:24:55;6.5;;;5.3;;
17949;SDS011;9100;48.700;9.316;2023-05-20T03:25:55;6.5;;;5.3;;
17949;SDS011;9100;48.700;9.316;2023-05-20T03:26:55;6.5;;;5.3;;
17949;SDS011;9100;48.700;9.316;2023-05-20T03:27:55;6.5;;;5.3;;
17949;SDS011;9100;48.700;9.316;2023-05-20T03:28:55;6.5;;;5.3;;
17949;SDS011;9100;48.700;9.316;2023-05-20T03:29:53;5.6;;;4.9;;
17949;SDS011;9100;48.700;9.316;2023-05-20T03:29:55;5.6;;;4.9;;
17949;SDS011;9100;48.700;9.316;2023-05-20T03:30:56;5.6;;;4.9;;
17949;SDS011;9100;48.700;9.316;2023-05-20T03:31:55;5.6;;;4.9;;
17949;SDS011;9100;48.700;9.316;2023-05-20T03:32:55;5.6;;;4.9;;
17949;SDS011;9100;48.700;9.316;2023-05-20T03:33:55;5.6;;;4.9;;
17949;SDS011;9100;48.700;9.316;2023-05-20T03:34:54;5.3;;;4.8;;
17949;SDS011;9100;48.700;9.316;2023-05-20T03:34:55;5.3;;;4.8;;
17949;SDS011;9100;48.700;9.316;2023-05-20T03:35:55;5.3;;;4.8;;
17949;SDS011;9100;48.700;9.316;2023-05-20T03:36:55;5.3;;;4.8;;
17949;SDS011;9100;48.700;9.316;2023-05-20T03:37:55;5.3;;;4.8;;
17949;SDS011;9100;48.700;9.316;2023-05-20T03:38:55;5.3;;;4.8;;
17949;SDS011;9100;48.700;9.316;2023-05-20T03:39:53;4.4;;;4.1;;
17949;SDS011;9100;48.700;9.316;2023-05-20T03:39:55;4.4;;;4.1;;
17949;SDS011;9100;48.700;9.316;2023-05-20T03:40:55;4.4;;;4.1;;
17949;SDS011;9100;48.700;9.316;2023-05-20T03:41:55;4.4;;;4.1;;
17949;SDS011;9100;48.700;9.316;2023-05-20T03:42:55;4.4;;;4.1;;
17949;SDS011;9100;48.700;9.316;2023-05-20T03:43:56;4.4;;;4.1;;
17949;SDS011;9100;48.700;9.316;2023-05-20T03:44:53;5.7;;;5.1;;
17949;SDS011;9100;48.700;9.316;2023-05-20T03:44:55;5.7;;;5.1;;
17949;SDS011;9100;48.700;9.316;2023-05-20T03:45:55;5.7;;;5.1;;
17949;SDS011;9100;48.700;9.316;2023-05-20T03:46:55;5.7;;;5.1;;
17949;SDS011;9100;48.700;9.316;2023-05-20T03:47:55;5.7;;;5.1;;
17949;SDS011;9100;48.700;9.316;2023-05-20T03:48:55;5.7;;;5.1;;
17949;SDS011;9100;48.700;9.316;2023-05-20T03:49:53;5.9;;;4.6;;
17949;SDS011;9100;48.700;9.316;2023-05-20T03:49:55;5.9;;;4.6;;
17949;SDS011;9100;48.700;9.316;2023-05-20T03:50:55;5.9;;;4.6;;
17949;SDS011;9100;48.700;9.316;2023-05-20T03:51:55;5.9;;;4.6;;
17949;SDS011;9100;48.700;9.316;2023-05-20T03:52:55;5.9;;;4.6;;
17949;SDS011;9100;48.700;9.316;2023-05-20T03:53:55;5.9;;;4.6;;
17949;SDS011;9100;48.700;9.316;2023-05-20T03:54:53;5.1;;;4.7;;
17949;SDS011;9100;48.700;9.316;2023-05-20T03:54:55;5.1;;;4.7;;
17949;SDS011;9100;48.700;9.316;2023-05-20T03:55:55;5.1;;;4.7;;
17949;SDS011;9100;48.700;9.316;2023-05-20T03:56:55;5.1;;;4.7;;
17949;SDS011;9100;48.700;9.316;2023-05-20T03:57:55;5.1;;;4.7;;
17949;SDS011;9100;48.700;9.316;2023-05-20T03:58:55;5.1;;;4.7;;
17949;SDS011;9100;48.700;9.316;2023-05-20T03:59:53;5.2;;;4.7;;
17949;SDS011;9100;48.700;9.316;2023-05-20T03:59:55;5.2;;;4.7;;
17949;SDS011;9100;48.700;9.316;2023-05-20T04:00:55;5.2;;;4.7;;
17949;SDS011;9100;48.700;9.316;2023-05-20T04:01:55;5.2;;;4.7;;
17949;SDS011;9100;48.700;9.316;2023-05-20T04:02:55;5.2;;;4.7;;
17949;SDS011;9100;48.700;9.316;2023-05-20T04:03:55;5.2;;;4.7;;
17949;SDS011;9100;48.700;9.316;2023-05-20T04:04:53;4.7;;;4.3;;
17949;SDS011;9100;48.700;9.316;2023-05-20T04:04:55;4.7;;;4.3;;
17949;SDS011;9100;48.700;9.316;2023-05-20T04:05:55;4.7;;;4.3;;
17949;SDS011;9100;48.700;9.316;2023-05-20T04:06:55;4.7;;;4.3;;
17949;SDS011;9100;48.700;9.316;2023-05-20T04:07:55;4.7;;;4.3;;
17949;SDS011;9100;48.700;9.316;2023-05-20T04:08:55;4.7;;;4.3;;
17949;SDS011;9100;48.700;9.316;2023-05-20T04:09:53;5.9;;;5;;
17949;SDS011;9100;48.700;9.316;2023-05-20T04:09:55;5.9;;;5;;
17949;SDS011;9100;48.700;9.316;2023-05-20T04:10:55;5.9;;;5;;
17949;SDS011;9100;48.700;9.316;2023-05-20T04:11:55;5.9;;;5;;
17949;SDS011;9100;48.700;9.316;2023-05-20T04:12:55;5.9;;;5;;
17949;SDS011;9100;48.700;9.316;2023-05-20T04:13:55;5.9;;;5;;
17949;SDS011;9100;48.700;9.316;2023-05-20T04:14:53;5.2;;;4.8;;
17949;SDS011;9100;48.700;9.316;2023-05-20T04:14:56;5.2;;;4.8;;
17949;SDS011;9100;48.700;9.316;2023-05-20T04:15:55;5.2;;;4.8;;
17949;SDS011;9100;48.700;9.316;2023-05-20T04:16:55;5.2;;;4.8;;
17949;SDS011;9100;48.700;9.316;2023-05-20T04:17:55;5.2;;;4.8;;
17949;SDS011;9100;48.700;9.316;2023-05-20T04:18:55;5.2;;;4.8;;
17949;SDS011;9100;48.700;9.316;2023-05-20T04:19:53;7.1;;;4.7;;
17949;SDS011;9100;48.700;9.316;2023-05-20T04:19:55;7.1;;;4.7;;
17949;SDS011;9100;48.700;9.316;2023-05-20T04:20:55;7.1;;;4.7;;
17949;SDS011;9100;48.700;9.316;2023-05-20T04:21:55;7.1;;;4.7;;
17949;SDS011;9100;48.700;9.316;2023-05-20T04:22:55;7.1;;;4.7;;
17949;SDS011;9100;48.700;9.316;2023-05-20T04:23:55;7.1;;;4.7;;
17949;SDS011;9100;48.700;9.316;2023-05-20T04:24:53;4.7;;;4.3;;
17949;SDS011;9100;48.700;9.316;2023-05-20T04:24:55;4.7;;;4.3;;
17949;SDS011;9100;48.700;9.316;2023-05-20T04:25:55;4.7;;;4.3;;
17949;SDS011;9100;48.700;9.316;2023-05-20T04:26:55;4.7;;;4.3;;
17949;SDS011;9100;48.700;9.316;2023-05-20T04:27:55;4.7;;;4.3;;
17949;SDS011;9100;48.700;9.316;2023-05-20T04:28:55;4.7;;;4.3;;
17949;SDS011;9100;48.700;9.316;2023-05-20T04:29:53;5.3;;;4.9;;
17949;SDS011;9100;48.700;9.316;2023-05-20T04:29:55;5.3;;;4.9;;
17949;SDS011;9100;48.700;9.316;2023-05-20T04:30:58;5.3;;;4.9;;
17949;SDS011;9100;48.700;9.316;2023-05-20T04:31:55;5.3;;;4.9;;
17949;SDS011;9100;48.700;9.316;2023-05-20T04:32:55;5.3;;;4.9;;
17949;SDS011;9100;48.700;9.316;2023-05-20T04:33:55;5.3;;;4.9;;
17949;SDS011;9100;48.700;9.316;2023-05-20T04:34:53;4.9;;;4.5;;
17949;SDS011;9100;48.700;9.316;2023-05-20T04:34:55;4.9;;;4.5;;
17949;SDS011;9100;48.700;9.316;2023-05-20T04:35:55;4.9;;;4.5;;
17949;SDS011;9100;48.700;9.316;2023-05-20T04:36:55;4.9;;;4.5;;
17949;SDS011;9100;48.700;9.316;2023-05-20T04:37:55;4.9;;;4.5;;
17949;SDS011;9100;48.700;9.316;2023-05-20T04:38:55;4.9;;;4.5;;
17949;SDS011;9100;48.700;9.316;2023-05-20T04:39:53;5;;;4.6;;
17949;SDS011;9100;48.700;9.316;2023-05-20T04:39:55;5;;;4.6;;
17949;SDS011;9100;48.700;9.316;2023-05-20T04:40:55;5;;;4.6;;
17949;SDS011;9100;48.700;9.316;2023-05-20T04:41:56;5;;;4.6;;
17949;SDS011;9100;48.700;9.316;2023-05-20T04:42:55;5;;;4.6;;
17949;SDS011;9100;48.700;9.316;2023-05-20T04:43:55;5;;;4.6;;
17949;SDS011;9100;48.700;9.316;2023-05-20T04:44:53;5;;;4.6;;
17949;SDS011;9100;48.700;9.316;2023-05-20T04:44:55;5;;;4.6;;
17949;SDS011;9100;48.700;9.316;2023-05-20T04:45:55;5;;;4.6;;
17949;SDS011;9100;48.700;9.316;2023-05-20T04:46:55;5;;;4.6;;
17949;SDS011;9100;48.700;9.316;2023-05-20T04:47:55;5;;;4.6;;
17949;SDS011;9100;48.700;9.316;2023-05-20T04:48:55;5;;;4.6;;
17949;SDS011;9100;48.700;9.316;2023-05-20T04:49:53;7.7;;;4;;
17949;SDS011;9100;48.700;9.316;2023-05-20T04:49:55;7.7;;;4;;
17949;SDS011;9100;48.700;9.316;2023-05-20T04:50:55;7.7;;;4;;
17949;SDS011;9100;48.700;9.316;2023-05-20T04:51:55;7.7;;;4;;
17949;SDS011;9100;48.700;9.316;2023-05-20T04:52:55;7.7;;;4;;
17949;SDS011;9100;48.700;9.316;2023-05-20T04:53:55;7.7;;;4;;
17949;SDS011;9100;48.700;9.316;2023-05-20T04:54:53;4.4;;;4.1;;
17949;SDS011;9100;48.700;9.316;2023-05-20T04:54:55;4.4;;;4.1;;
17949;SDS011;9100;48.700;9.316;2023-05-20T04:55:55;4.4;;;4.1;;
17949;SDS011;9100;48.700;9.316;2023-05-20T04:56:55;4.4;;;4.1;;
17949;SDS011;9100;48.700;9.316;2023-05-20T04:57:55;4.4;;;4.1;;
17949;SDS011;9100;48.700;9.316;2023-05-20T04:58:55;4.4;;;4.1;;
17949;SDS011;9100;48.700;9.316;2023-05-20T04:59:54;6.5;;;4.5;;
17949;SDS011;9100;48.700;9.316;2023-05-20T04:59:55;6.5;;;4.5;;
17949;SDS011;9100;48.700;9.316;2023-05-20T05:00:55;6.5;;;4.5;;
17949;SDS011;9100;48.700;9.316;2023-05-20T05:01:55;6.5;;;4.5;;
17949;SDS011;9100;48.700;9.316;2023-05-20T05:02:55;6.5;;;4.5;;
17949;SDS011;9100;48.700;9.316;2023-05-20T05:03:55;6.5;;;4.5;;
17949;SDS011;9100;48.700;9.316;2023-05-20T05:04:53;5.7;;;4.7;;
17949;SDS011;9100;48.700;9.316;2023-05-20T05:04:55;5.7;;;4.7;;
17949;SDS011;9100;48.700;9.316;2023-05-20T05:05:55;5.7;;;4.7;;
17949;SDS011;9100;48.700;9.316;2023-05-20T05:06:55;5.7;;;4.7;;
17949;SDS011;9100;48.700;9.316;2023-05-20T05:07:55;5.7;;;4.7;;
17949;SDS011;9100;48.700;9.316;2023-05-20T05:08:55;5.7;;;4.7;;
17949;SDS011;9100;48.700;9.316;2023-05-20T05:09:53;7.4;;;4.9;;
17949;SDS011;9100;48.700;9.316;2023-05-20T05:09:55;7.4;;;4.9;;
17949;SDS011;9100;48.700;9.316;2023-05-20T05:10:55;7.4;;;4.9;;
17949;SDS011;9100;48.700;9.316;2023-05-20T05:11:55;7.4;;;4.9;;
17949;SDS011;9100;48.700;9.316;2023-05-20T05:12:55;7.4;;;4.9;;
17949;SDS011;9100;48.700;9.316;2023-05-20T05:13:55;7.4;;;4.9;;
17949;SDS011;9100;48.700;9.316;2023-05-20T05:14:53;7.2;;;4;;
17949;SDS011;9100;48.700;9.316;2023-05-20T05:14:55;7.2;;;4;;
17949;SDS011;9100;48.700;9.316;2023-05-20T05:15:57;7.2;;;4;;
17949;SDS011;9100;48.700;9.316;2023-05-20T05:16:55;7.2;;;4;;
17949;SDS011;9100;48.700;9.316;2023-05-20T05:17:55;7.2;;;4;;
17949;SDS011;9100;48.700;9.316;2023-05-20T05:18:55;7.2;;;4;;